Time;durP1;ratioP1;P1;durP2;ratioP2;P2;SDS_P1;SDS_P2;PMS_P1;PMS_P2;Temp;Humidity;BMP_temperature;BMP_pressure;BME280_temperature;BME280_humidity;BME280_pressure;Samples;Min_cycle;Max_cycle;Signal;HPM_P1;HPM_P2
2024/01/02 00:00:05;;;;;;;;;;;;;;;;;;5094533;28;1902;-57
2024/01/02 00:02:31;;;;;;;;;;;;;;;;;;5094145;28;860;-57
2024/01/02 00:04:56;;;;;;;;;;;;;;;;;;5094630;28;872;-56
2024/01/02 00:07:23;;;;;;;;;;;;;;;;;;5093947;28;994;-57
2024/01/02 00:09:48;;;;;;;;;;;;;;;;;;5094510;28;816;-59
2024/01/02 00:12:13;;;;;;;;;;;;;;;;;;5094564;28;875;-56
2024/01/02 00:14:39;;;;;;;;;;;;;;;;;;5095012;28;959;-57
2024/01/02 00:17:04;;;;;;;;;;;;;;;;;;5094922;28;928;-57
2024/01/02 00:19:29;;;;;;;;;;;;;;;;;;5094915;28;856;-57
2024/01/02 00:21:54;;;;;;;;;;;;;;;;;;5093408;28;1910;-57
2024/01/02 00:24:20;;;;;;;;;;;;;;;;;;5094418;28;967;-57
2024/01/02 00:26:45;;;;;;;;;;;;;;;;;;5094616;28;942;-57
2024/01/02 00:29:10;;;;;;;;;;;;;;;;;;5094457;28;998;-56
2024/01/02 00:31:35;;;;;;;;;;;;;;;;;;5094369;28;962;-57
2024/01/02 00:34:01;;;;;;;;;;;;;;;;;;5094176;28;895;-57
2024/01/02 00:36:26;;;;;;;;;;;;;;;;;;5094322;28;833;-57
2024/01/02 00:38:51;;;;;;;;;;;;;;;;;;5094613;28;836;-57
2024/01/02 00:41:16;;;;;;;;;;;;;;;;;;5094307;28;1898;-57
2024/01/02 00:43:41;;;;;;;;;;;;;;;;;;5094611;28;907;-56
2024/01/02 00:46:07;;;;;;;;;;;;;;;;;;5094455;28;872;-56
2024/01/02 00:48:32;;;;;;;;;;;;;;;;;;5094422;28;856;-56
2024/01/02 00:50:59;;;;;;;;;;;;;;;;;;5094529;28;824;-57
2024/01/02 00:53:25;;;;;;;;;;;;;;;;;;5094027;28;1040;-57
2024/01/02 00:55:50;;;;;;;;;;;;;;;;;;5094213;28;848;-56
2024/01/02 00:58:15;;;;;;;;;;;;;;;;;;5093784;28;907;-57
2024/01/02 01:00:41;;;;;;;;;;;;;;;;;;5093579;28;1965;-57
2024/01/02 01:03:06;;;;;;;;;;;;;;;;;;5093994;28;1066;-57
2024/01/02 01:05:31;;;;;;;;;;;;;;;;;;5094356;28;840;-57
2024/01/02 01:07:56;;;;;;;;;;;;;;;;;;5094200;28;927;-57
2024/01/02 01:10:22;;;;;;;;;;;;;;;;;;5094518;28;903;-57
2024/01/02 01:12:47;;;;;;;;;;;;;;;;;;5094620;28;805;-58
2024/01/02 01:15:12;;;;;;;;;;;;;;;;;;5094561;28;867;-57
2024/01/02 01:17:39;;;;;;;;;;;;;;;;;;5094724;28;836;-57
2024/01/02 01:20:05;;;;;;;;;;;;;;;;;;5097664;28;1901;-57
2024/01/02 01:22:30;;;;;;;;;;;;;;;;;;5097045;28;912;-57
2024/01/02 01:24:55;;;;;;;;;;;;;;;;;;5097034;28;891;-58
2024/01/02 01:27:21;;;;;;;;;;;;;;;;;;5084796;28;1219;-56
2024/01/02 01:29:46;;;;;;;;;;;;;;;;;;5085999;28;1210;-56
2024/01/02 01:32:12;;;;;;;;;;;;;;;;;;5083295;28;1172;-57
2024/01/02 01:34:38;;;;;;;;;;;;;;;;;;5087723;28;1150;-56
2024/01/02 01:37:03;;;;;;;;;;;;;;;;;;5083791;28;1342;-57
2024/01/02 01:39:28;;;;;;;;;;;;;;;;;;5086040;28;1350;-57
2024/01/02 01:41:54;;;;;;;;;;;;;;;;;;5073911;28;1980;-57
2024/01/02 01:44:19;;;;;;;;;;;;;;;;;;5073773;28;1065;-57
2024/01/02 01:46:45;;;;;;;;;;;;;;;;;;5081714;28;1151;-57
2024/01/02 01:49:11;;;;;;;;;;;;;;;;;;5079337;28;1215;-57
2024/01/02 01:51:40;;;;;;;;;;;;;;;;;;5076363;28;1182;-58
2024/01/02 01:54:05;;;;;;;;;;;;;;;;;;5076772;28;954;-57
2024/01/02 01:56:31;;;;;;;;;;;;;;;;;;5077185;28;904;-56
2024/01/02 01:58:56;;;;;;;;;;;;;;;;;;5077171;28;829;-56
2024/01/02 02:01:23;;;;;;;;;;;;;;;;;;5076846;28;1894;-58
2024/01/02 02:03:49;;;;;;;;;;;;;;;;;;5077125;28;903;-57
2024/01/02 02:06:15;;;;;;;;;;;;;;;;;;5077505;28;848;-56
2024/01/02 02:08:41;;;;;;;;;;;;;;;;;;5076830;28;876;-57
2024/01/02 02:11:06;;;;;;;;;;;;;;;;;;5075685;28;805;-56
2024/01/02 02:13:31;;;;;;;;;;;;;;;;;;5077122;28;885;-56
2024/01/02 02:15:56;;;;;;;;;;;;;;;;;;5077101;28;1062;-56
2024/01/02 02:18:22;;;;;;;;;;;;;;;;;;5077081;28;1014;-56
2024/01/02 02:20:49;;;;;;;;;;;;;;;;;;5076653;28;1914;-57
2024/01/02 02:23:16;;;;;;;;;;;;;;;;;;5076749;28;936;-57
2024/01/02 02:25:41;;;;;;;;;;;;;;;;;;5076761;28;841;-55
2024/01/02 02:28:06;;;;;;;;;;;;;;;;;;5075387;28;1065;-56
2024/01/02 02:30:32;;;;;;;;;;;;;;;;;;5076018;28;919;-56
2024/01/02 02:32:57;;;;;;;;;;;;;;;;;;5076556;28;884;-57
2024/01/02 02:35:22;;;;;;;;;;;;;;;;;;5076849;28;946;-57
2024/01/02 02:37:47;;;;;;;;;;;;;;;;;;5076298;28;1199;-57
2024/01/02 02:40:13;;;;;;;;;;;;;;;;;;5076285;28;1957;-57
2024/01/02 02:42:38;;;;;;;;;;;;;;;;;;5076397;28;836;-56
2024/01/02 02:45:04;;;;;;;;;;;;;;;;;;5076996;28;825;-57
2024/01/02 02:47:30;;;;;;;;;;;;;;;;;;5076892;28;879;-57
2024/01/02 02:49:55;;;;;;;;;;;;;;;;;;5076305;28;969;-57
2024/01/02 02:52:21;;;;;;;;;;;;;;;;;;5076125;28;813;-57
2024/01/02 02:54:46;;;;;;;;;;;;;;;;;;5076247;28;986;-58
2024/01/02 02:57:12;;;;;;;;;;;;;;;;;;5076236;28;824;-58
2024/01/02 02:59:37;;;;;;;;;;;;;;;;;;5076716;28;971;-57
2024/01/02 03:02:02;;;;;;;;;;;;;;;;;;5076601;28;1961;-57
2024/01/02 03:04:27;;;;;;;;;;;;;;;;;;5075841;28;829;-57
2024/01/02 03:06:53;;;;;;;;;;;;;;;;;;5075839;28;1010;-57
2024/01/02 03:09:18;;;;;;;;;;;;;;;;;;5076064;28;1026;-57
2024/01/02 03:11:44;;;;;;;;;;;;;;;;;;5076094;28;947;-57
2024/01/02 03:14:09;;;;;;;;;;;;;;;;;;5076200;28;891;-57
2024/01/02 03:16:34;;;;;;;;;;;;;;;;;;5075838;28;896;-57
2024/01/02 03:19:00;;;;;;;;;;;;;;;;;;5075940;28;903;-56
2024/01/02 03:21:28;;;;;;;;;;;;;;;;;;5074151;28;1971;-56
2024/01/02 03:23:56;;;;;;;;;;;;;;;;;;5075051;28;903;-56
2024/01/02 03:26:21;;;;;;;;;;;;;;;;;;5074445;28;1557;-56
2024/01/02 03:28:47;;;;;;;;;;;;;;;;;;5075631;28;907;-57
2024/01/02 03:31:12;;;;;;;;;;;;;;;;;;5075514;28;856;-56
2024/01/02 03:33:37;;;;;;;;;;;;;;;;;;5075786;28;789;-57
2024/01/02 03:36:03;;;;;;;;;;;;;;;;;;5075260;28;1086;-56
2024/01/02 03:38:29;;;;;;;;;;;;;;;;;;5073746;28;872;-56
2024/01/02 03:40:54;;;;;;;;;;;;;;;;;;5073728;28;1977;-56
2024/01/02 03:43:19;;;;;;;;;;;;;;;;;;5074799;28;933;-56
2024/01/02 03:45:45;;;;;;;;;;;;;;;;;;5075044;28;1006;-57
2024/01/02 03:48:10;;;;;;;;;;;;;;;;;;5075076;28;1031;-57
2024/01/02 03:50:35;;;;;;;;;;;;;;;;;;5074969;28;875;-57
2024/01/02 03:53:00;;;;;;;;;;;;;;;;;;5074840;28;793;-57
2024/01/02 03:55:26;;;;;;;;;;;;;;;;;;5074761;28;901;-57
2024/01/02 03:57:51;;;;;;;;;;;;;;;;;;5074631;28;810;-56
2024/01/02 04:00:16;;;;;;;;;;;;;;;;;;5074601;28;1967;-57
2024/01/02 04:02:42;;;;;;;;;;;;;;;;;;5074512;28;816;-56
2024/01/02 04:05:07;;;;;;;;;;;;;;;;;;5074608;28;963;-57
2024/01/02 04:07:33;;;;;;;;;;;;;;;;;;5074456;28;844;-57
2024/01/02 04:09:58;;;;;;;;;;;;;;;;;;5074365;28;900;-57
2024/01/02 04:12:23;;;;;;;;;;;;;;;;;;5074152;28;900;-57
2024/01/02 04:14:49;;;;;;;;;;;;;;;;;;5074527;28;801;-57
2024/01/02 04:17:14;;;;;;;;;;;;;;;;;;5074188;28;942;-57
2024/01/02 04:19:39;;;;;;;;;;;;;;;;;;5074567;28;932;-57
2024/01/02 04:22:04;;;;;;;;;;;;;;;;;;5073160;28;1910;-57
2024/01/02 04:24:30;;;;;;;;;;;;;;;;;;5074586;28;954;-56
2024/01/02 04:26:55;;;;;;;;;;;;;;;;;;5074469;28;940;-56
2024/01/02 04:29:20;;;;;;;;;;;;;;;;;;5074457;28;829;-57
2024/01/02 04:31:46;;;;;;;;;;;;;;;;;;5074656;28;892;-56
2024/01/02 04:34:11;;;;;;;;;;;;;;;;;;5074219;28;857;-57
2024/01/02 04:36:36;;;;;;;;;;;;;;;;;;5074514;28;789;-58
2024/01/02 04:39:03;;;;;;;;;;;;;;;;;;5074343;28;944;-57
2024/01/02 04:41:28;;;;;;;;;;;;;;;;;;5073953;28;1906;-56
2024/01/02 04:43:53;;;;;;;;;;;;;;;;;;5074550;28;850;-58
2024/01/02 04:46:18;;;;;;;;;;;;;;;;;;5074543;28;1003;-57
2024/01/02 04:48:44;;;;;;;;;;;;;;;;;;5074647;28;852;-57
2024/01/02 04:51:09;;;;;;;;;;;;;;;;;;5074319;28;813;-57
2024/01/02 04:53:34;;;;;;;;;;;;;;;;;;5073734;28;893;-57
2024/01/02 04:55:59;;;;;;;;;;;;;;;;;;5073990;28;904;-57
2024/01/02 04:58:25;;;;;;;;;;;;;;;;;;5073538;28;1105;-57
2024/01/02 05:00:50;;;;;;;;;;;;;;;;;;5073472;28;1975;-57
2024/01/02 05:03:16;;;;;;;;;;;;;;;;;;5073729;28;888;-57
2024/01/02 05:05:41;;;;;;;;;;;;;;;;;;5073732;28;1003;-57
2024/01/02 05:08:06;;;;;;;;;;;;;;;;;;5074082;28;1022;-57
2024/01/02 05:10:32;;;;;;;;;;;;;;;;;;5073734;28;919;-57
2024/01/02 05:12:58;;;;;;;;;;;;;;;;;;5073561;28;998;-57
2024/01/02 05:15:23;;;;;;;;;;;;;;;;;;5073666;28;1073;-56
2024/01/02 05:17:48;;;;;;;;;;;;;;;;;;5073704;28;1257;-56
2024/01/02 05:20:14;;;;;;;;;;;;;;;;;;5073238;28;1964;-57
2024/01/02 05:22:39;;;;;;;;;;;;;;;;;;5073302;28;955;-57
2024/01/02 05:25:04;;;;;;;;;;;;;;;;;;5072951;28;953;-56
2024/01/02 05:27:30;;;;;;;;;;;;;;;;;;5073909;28;880;-57
2024/01/02 05:29:55;;;;;;;;;;;;;;;;;;5072385;28;900;-57
2024/01/02 05:32:20;;;;;;;;;;;;;;;;;;5073436;28;1340;-57
2024/01/02 05:34:46;;;;;;;;;;;;;;;;;;5073801;28;868;-57
2024/01/02 05:37:11;;;;;;;;;;;;;;;;;;5073711;28;860;-57
2024/01/02 05:39:36;;;;;;;;;;;;;;;;;;5079176;28;1112;-57
2024/01/02 05:42:02;;;;;;;;;;;;;;;;;;5078276;28;1961;-57
2024/01/02 05:44:27;;;;;;;;;;;;;;;;;;5077292;28;1326;-57
2024/01/02 05:46:52;;;;;;;;;;;;;;;;;;5072577;28;1256;-56
2024/01/02 05:49:18;;;;;;;;;;;;;;;;;;5078693;28;1225;-57
2024/01/02 05:51:43;;;;;;;;;;;;;;;;;;5075812;28;1277;-57
2024/01/02 05:54:08;;;;;;;;;;;;;;;;;;5090211;28;1187;-57
2024/01/02 05:56:33;;;;;;;;;;;;;;;;;;5090015;28;1269;-56
2024/01/02 05:58:59;;;;;;;;;;;;;;;;;;5089546;28;1206;-57
2024/01/02 06:01:24;;;;;;;;;;;;;;;;;;5089695;28;1905;-57
2024/01/02 06:03:49;;;;;;;;;;;;;;;;;;5089961;28;1143;-57
2024/01/02 06:06:14;;;;;;;;;;;;;;;;;;5093571;28;1222;-57
2024/01/02 06:08:41;;;;;;;;;;;;;;;;;;5097404;28;812;-57
2024/01/02 06:11:07;;;;;;;;;;;;;;;;;;5096453;28;936;-57
2024/01/02 06:13:32;;;;;;;;;;;;;;;;;;5097399;28;868;-57
2024/01/02 06:15:59;;;;;;;;;;;;;;;;;;5097467;28;891;-57
2024/01/02 06:18:25;;;;;;;;;;;;;;;;;;5097825;28;840;-57
2024/01/02 06:20:50;;;;;;;;;;;;;;;;;;5097617;28;1980;-57
2024/01/02 06:23:15;;;;;;;;;;;;;;;;;;5097189;28;978;-56
2024/01/02 06:25:40;;;;;;;;;;;;;;;;;;5078760;28;1172;-57
2024/01/02 06:28:06;;;;;;;;;;;;;;;;;;5097333;28;951;-57
2024/01/02 06:30:31;;;;;;;;;;;;;;;;;;5096943;28;825;-57
2024/01/02 06:32:56;;;;;;;;;;;;;;;;;;5096510;28;911;-57
2024/01/02 06:35:22;;;;;;;;;;;;;;;;;;5096751;28;935;-57
2024/01/02 06:37:47;;;;;;;;;;;;;;;;;;5096287;28;812;-57
2024/01/02 06:40:13;;;;;;;;;;;;;;;;;;5096422;28;1972;-57
2024/01/02 06:42:38;;;;;;;;;;;;;;;;;;5097091;28;939;-57
2024/01/02 06:45:04;;;;;;;;;;;;;;;;;;5096980;28;923;-56
2024/01/02 06:47:29;;;;;;;;;;;;;;;;;;5096508;28;796;-56
2024/01/02 06:49:54;;;;;;;;;;;;;;;;;;5096252;28;860;-56
2024/01/02 06:52:19;;;;;;;;;;;;;;;;;;5096436;28;907;-57
2024/01/02 06:54:45;;;;;;;;;;;;;;;;;;5096521;28;912;-57
2024/01/02 06:57:10;;;;;;;;;;;;;;;;;;5096398;28;880;-56
2024/01/02 06:59:36;;;;;;;;;;;;;;;;;;5096500;28;907;-56
2024/01/02 07:02:02;;;;;;;;;;;;;;;;;;5096823;28;1905;-56
2024/01/02 07:04:27;;;;;;;;;;;;;;;;;;5096178;28;934;-56
2024/01/02 07:06:53;;;;;;;;;;;;;;;;;;5096527;28;915;-57
2024/01/02 07:09:18;;;;;;;;;;;;;;;;;;5096026;28;793;-57
2024/01/02 07:11:43;;;;;;;;;;;;;;;;;;5096249;28;1024;-56
2024/01/02 07:14:09;;;;;;;;;;;;;;;;;;5096075;28;1007;-56
2024/01/02 07:16:34;;;;;;;;;;;;;;;;;;5094659;28;857;-57
2024/01/02 07:18:59;;;;;;;;;;;;;;;;;;5096013;28;869;-57
2024/01/02 07:21:25;;;;;;;;;;;;;;;;;;5095494;28;1886;-57
2024/01/02 07:23:50;;;;;;;;;;;;;;;;;;5096005;28;840;-57
2024/01/02 07:26:16;;;;;;;;;;;;;;;;;;5095850;28;951;-57
2024/01/02 07:28:41;;;;;;;;;;;;;;;;;;5095493;28;865;-56
2024/01/02 07:31:09;;;;;;;;;;;;;;;;;;5096017;28;891;-57
2024/01/02 07:33:34;;;;;;;;;;;;;;;;;;5095907;28;994;-56
2024/01/02 07:35:59;;;;;;;;;;;;;;;;;;5095950;28;958;-59
2024/01/02 07:38:26;;;;;;;;;;;;;;;;;;5095740;28;844;-58
2024/01/02 07:40:54;;;;;;;;;;;;;;;;;;5094217;28;1897;-57
2024/01/02 07:43:19;;;;;;;;;;;;;;;;;;5095236;28;1130;-57
2024/01/02 07:45:44;;;;;;;;;;;;;;;;;;5095424;28;864;-56
2024/01/02 07:48:10;;;;;;;;;;;;;;;;;;5095693;28;845;-56
2024/01/02 07:50:35;;;;;;;;;;;;;;;;;;5094947;28;908;-57
2024/01/02 07:53:00;;;;;;;;;;;;;;;;;;5095574;28;915;-56
2024/01/02 07:55:25;;;;;;;;;;;;;;;;;;5095518;28;991;-57
2024/01/02 07:57:51;;;;;;;;;;;;;;;;;;5095895;28;979;-57
2024/01/02 08:00:16;;;;;;;;;;;;;;;;;;5095653;28;1957;-56
2024/01/02 08:02:41;;;;;;;;;;;;;;;;;;5095948;28;1029;-56
2024/01/02 08:05:07;;;;;;;;;;;;;;;;;;5095344;28;879;-56
2024/01/02 08:07:32;;;;;;;;;;;;;;;;;;5095343;28;879;-57
2024/01/02 08:09:58;;;;;;;;;;;;;;;;;;5095437;28;874;-57
2024/01/02 08:12:23;;;;;;;;;;;;;;;;;;5094997;28;840;-56
2024/01/02 08:14:48;;;;;;;;;;;;;;;;;;5094938;28;920;-56
2024/01/02 08:17:14;;;;;;;;;;;;;;;;;;5093223;28;1726;-55
2024/01/02 08:19:39;;;;;;;;;;;;;;;;;;5094916;28;929;-57
2024/01/02 08:22:05;;;;;;;;;;;;;;;;;;5094795;28;1975;-57
2024/01/02 08:24:30;;;;;;;;;;;;;;;;;;5094485;28;841;-57
2024/01/02 08:26:55;;;;;;;;;;;;;;;;;;5094652;28;693;-57
2024/01/02 08:29:21;;;;;;;;;;;;;;;;;;5094283;28;883;-55
2024/01/02 08:31:46;;;;;;;;;;;;;;;;;;5094805;28;895;-56
2024/01/02 08:34:12;;;;;;;;;;;;;;;;;;5094388;28;987;-56
2024/01/02 08:36:37;;;;;;;;;;;;;;;;;;5094270;28;1035;-57
2024/01/02 08:39:03;;;;;;;;;;;;;;;;;;5093993;28;848;-56
2024/01/02 08:41:28;;;;;;;;;;;;;;;;;;5094413;28;1906;-56
2024/01/02 08:43:53;;;;;;;;;;;;;;;;;;5094330;28;832;-57
2024/01/02 08:46:19;;;;;;;;;;;;;;;;;;5094540;28;1074;-57
2024/01/02 08:48:44;;;;;;;;;;;;;;;;;;5094134;28;852;-56
2024/01/02 08:51:10;;;;;;;;;;;;;;;;;;5094567;28;891;-56
2024/01/02 08:53:35;;;;;;;;;;;;;;;;;;5094217;28;897;-55
2024/01/02 08:56:00;;;;;;;;;;;;;;;;;;5094528;28;809;-57
2024/01/02 08:58:25;;;;;;;;;;;;;;;;;;5094044;28;931;-58
2024/01/02 09:00:51;;;;;;;;;;;;;;;;;;5094362;28;1906;-58
2024/01/02 09:03:16;;;;;;;;;;;;;;;;;;5094130;28;860;-58
2024/01/02 09:05:42;;;;;;;;;;;;;;;;;;5092375;28;868;-59
2024/01/02 09:08:07;;;;;;;;;;;;;;;;;;5094165;28;927;-58
2024/01/02 09:10:33;;;;;;;;;;;;;;;;;;5093873;28;863;-57
2024/01/02 09:12:58;;;;;;;;;;;;;;;;;;5094144;28;889;-57
2024/01/02 09:15:24;;;;;;;;;;;;;;;;;;5094356;28;821;-57
2024/01/02 09:17:49;;;;;;;;;;;;;;;;;;5094717;28;942;-58
2024/01/02 09:20:14;;;;;;;;;;;;;;;;;;5094593;28;1917;-59
2024/01/02 09:22:40;;;;;;;;;;;;;;;;;;5093843;28;829;-57
2024/01/02 09:25:05;;;;;;;;;;;;;;;;;;5094150;28;963;-57
2024/01/02 09:27:32;;;;;;;;;;;;;;;;;;5094437;28;864;-58
2024/01/02 09:30:00;;;;;;;;;;;;;;;;;;5092473;28;1475;-58
2024/01/02 09:32:26;;;;;;;;;;;;;;;;;;5093960;28;833;-57
2024/01/02 09:34:51;;;;;;;;;;;;;;;;;;5094397;28;951;-58
2024/01/02 09:37:17;;;;;;;;;;;;;;;;;;5093630;28;840;-57
2024/01/02 09:39:43;;;;;;;;;;;;;;;;;;5094845;28;1013;-61
2024/01/02 09:42:18;;;;;;;;;;;;;;;;;;5097991;28;1972;-57
2024/01/02 09:44:52;;;;;;;;;;;;;;;;;;5097817;28;828;-58
2024/01/02 09:47:41;;;;;;;;;;;;;;;;;;5098206;28;883;-57
2024/01/02 09:50:12;;;;;;;;;;;;;;;;;;5098082;28;919;-58
2024/01/02 09:52:45;;;;;;;;;;;;;;;;;;5097474;28;935;-58
2024/01/02 09:55:30;;;;;;;;;;;;;;;;;;5097688;28;1119;-57
2024/01/02 09:58:17;;;;;;;;;;;;;;;;;;5092953;28;1279;-58
2024/01/02 10:01:01;;;;;;;;;;;;;;;;;;5097375;28;1973;-57
2024/01/02 10:03:36;;;;;;;;;;;;;;;;;;5097512;28;813;-59
2024/01/02 10:06:19;;;;;;;;;;;;;;;;;;5097603;28;893;-57
2024/01/02 10:08:56;;;;;;;;;;;;;;;;;;5097407;28;931;-58
2024/01/02 10:11:32;;;;;;;;;;;;;;;;;;5096976;28;947;-57
2024/01/02 10:14:02;;;;;;;;;;;;;;;;;;5097539;28;1213;-58
2024/01/02 10:16:38;;;;;;;;;;;;;;;;;;5097220;28;836;-57
2024/01/02 10:19:06;;;;;;;;;;;;;;;;;;5097152;28;957;-58
2024/01/02 10:21:37;;;;;;;;;;;;;;;;;;5097234;28;1969;-57
2024/01/02 10:24:08;;;;;;;;;;;;;;;;;;5096962;28;1015;-58
2024/01/02 10:26:38;;;;;;;;;;;;;;;;;;5095800;28;1350;-57
2024/01/02 10:29:04;;;;;;;;;;;;;;;;;;5096929;28;1173;-59
2024/01/02 10:31:46;;;;;;;;;;;;;;;;;;5097146;28;820;-58
2024/01/02 10:34:41;;;;;;;;;;;;;;;;;;5093791;28;1183;-57
2024/01/02 10:37:06;;;;;;;;;;;;;;;;;;5060064;28;1355;-57
2024/01/02 10:39:43;;;;;;;;;;;;;;;;;;5056688;28;943;-57
2024/01/02 10:42:26;;;;;;;;;;;;;;;;;;5056851;28;1902;-58
2024/01/02 10:45:02;;;;;;;;;;;;;;;;;;5071972;28;1124;-57
2024/01/02 10:47:34;;;;;;;;;;;;;;;;;;5081068;28;1143;-57
2024/01/02 10:50:02;;;;;;;;;;;;;;;;;;5091682;28;1131;-57
2024/01/02 10:52:37;;;;;;;;;;;;;;;;;;5082862;28;1218;-57
2024/01/02 10:55:14;;;;;;;;;;;;;;;;;;5075536;28;1139;-58
2024/01/02 10:57:55;;;;;;;;;;;;;;;;;;5080901;28;1324;-58
2024/01/02 11:00:22;;;;;;;;;;;;;;;;;;5073851;28;1902;-57
2024/01/02 11:02:57;;;;;;;;;;;;;;;;;;5076501;28;1234;-58
2024/01/02 11:05:41;;;;;;;;;;;;;;;;;;5094841;28;1135;-58
2024/01/02 11:08:14;;;;;;;;;;;;;;;;;;5096445;28;836;-57
2024/01/02 11:10:44;;;;;;;;;;;;;;;;;;5095887;28;825;-58
2024/01/02 11:13:11;;;;;;;;;;;;;;;;;;5096089;28;797;-58
2024/01/02 11:15:38;;;;;;;;;;;;;;;;;;5096390;28;836;-57
2024/01/02 11:18:04;;;;;;;;;;;;;;;;;;5094502;28;863;-56
2024/01/02 11:20:38;;;;;;;;;;;;;;;;;;5095598;28;2044;-56
2024/01/02 11:23:09;;;;;;;;;;;;;;;;;;5095909;28;919;-56
2024/01/02 11:25:39;;;;;;;;;;;;;;;;;;5095420;28;863;-57
2024/01/02 11:28:05;;;;;;;;;;;;;;;;;;5095634;28;998;-56
2024/01/02 11:30:35;;;;;;;;;;;;;;;;;;5095559;28;816;-57
2024/01/02 11:33:15;;;;;;;;;;;;;;;;;;5095481;28;844;-57
2024/01/02 11:35:44;;;;;;;;;;;;;;;;;;5095420;28;1097;-55
2024/01/02 11:38:10;;;;;;;;;;;;;;;;;;5095971;28;1054;-57
2024/01/02 11:40:43;;;;;;;;;;;;;;;;;;5095594;28;1893;-58
2024/01/02 11:43:17;;;;;;;;;;;;;;;;;;5095698;28;816;-56
2024/01/02 11:45:42;;;;;;;;;;;;;;;;;;5094982;28;817;-57
2024/01/02 11:48:08;;;;;;;;;;;;;;;;;;5095466;28;860;-56
2024/01/02 11:50:45;;;;;;;;;;;;;;;;;;5093869;28;844;-56
2024/01/02 11:53:18;;;;;;;;;;;;;;;;;;5095368;28;868;-56
2024/01/02 11:55:46;;;;;;;;;;;;;;;;;;5094840;28;919;-56
2024/01/02 11:58:14;;;;;;;;;;;;;;;;;;5094996;28;836;-55
2024/01/02 12:00:46;;;;;;;;;;;;;;;;;;5095164;28;1949;-56
2024/01/02 12:03:26;;;;;;;;;;;;;;;;;;5094453;28;934;-56
2024/01/02 12:05:55;;;;;;;;;;;;;;;;;;5095000;28;856;-56
2024/01/02 12:08:24;;;;;;;;;;;;;;;;;;5094709;28;840;-56
2024/01/02 12:10:53;;;;;;;;;;;;;;;;;;5095002;28;856;-56
2024/01/02 12:13:29;;;;;;;;;;;;;;;;;;5095228;28;891;-56
2024/01/02 12:16:00;;;;;;;;;;;;;;;;;;5095191;28;877;-56
2024/01/02 12:18:30;;;;;;;;;;;;;;;;;;5095156;28;935;-56
2024/01/02 12:20:57;;;;;;;;;;;;;;;;;;5095169;28;1898;-56
2024/01/02 12:23:23;;;;;;;;;;;;;;;;;;5094885;28;1010;-57
2024/01/02 12:25:49;;;;;;;;;;;;;;;;;;5094315;28;953;-57
2024/01/02 12:28:15;;;;;;;;;;;;;;;;;;5095041;28;995;-56
2024/01/02 12:30:56;;;;;;;;;;;;;;;;;;5094670;28;935;-56
2024/01/02 12:33:45;;;;;;;;;;;;;;;;;;5094927;28;959;-56
2024/01/02 12:36:30;;;;;;;;;;;;;;;;;;5091355;28;1701;-57
2024/01/02 12:39:00;;;;;;;;;;;;;;;;;;5094818;28;1063;-56
2024/01/02 12:41:29;;;;;;;;;;;;;;;;;;5094659;28;1902;-56
2024/01/02 12:43:58;;;;;;;;;;;;;;;;;;5094903;28;902;-56
2024/01/02 12:46:32;;;;;;;;;;;;;;;;;;5094635;28;953;-56
2024/01/02 12:49:09;;;;;;;;;;;;;;;;;;5094470;28;899;-55
2024/01/02 12:51:35;;;;;;;;;;;;;;;;;;5093062;28;848;-56
2024/01/02 12:54:01;;;;;;;;;;;;;;;;;;5094832;28;921;-56
2024/01/02 12:56:31;;;;;;;;;;;;;;;;;;5094390;28;848;-56
2024/01/02 12:58:59;;;;;;;;;;;;;;;;;;5094458;28;942;-56
2024/01/02 13:01:25;;;;;;;;;;;;;;;;;;5094383;28;1956;-56
2024/01/02 13:03:50;;;;;;;;;;;;;;;;;;5094466;28;842;-56
2024/01/02 13:06:16;;;;;;;;;;;;;;;;;;5094644;28;1072;-57
2024/01/02 13:08:42;;;;;;;;;;;;;;;;;;5094444;28;848;-56
2024/01/02 13:11:07;;;;;;;;;;;;;;;;;;5094740;28;836;-56
2024/01/02 13:13:33;;;;;;;;;;;;;;;;;;5094149;28;888;-56
2024/01/02 13:16:00;;;;;;;;;;;;;;;;;;5094838;28;975;-56
2024/01/02 13:18:26;;;;;;;;;;;;;;;;;;5094283;28;899;-56
2024/01/02 13:20:53;;;;;;;;;;;;;;;;;;5094131;28;1948;-55
2024/01/02 13:23:18;;;;;;;;;;;;;;;;;;5092841;28;869;-58
2024/01/02 13:25:44;;;;;;;;;;;;;;;;;;5094052;28;828;-57
2024/01/02 13:28:22;;;;;;;;;;;;;;;;;;5093921;28;923;-55
2024/01/02 13:30:50;;;;;;;;;;;;;;;;;;5093814;28;828;-56
2024/01/02 13:33:16;;;;;;;;;;;;;;;;;;5094455;28;847;-56
2024/01/02 13:35:47;;;;;;;;;;;;;;;;;;5094342;28;904;-57
2024/01/02 13:38:18;;;;;;;;;;;;;;;;;;5094442;28;937;-56
2024/01/02 13:40:43;;;;;;;;;;;;;;;;;;5094418;28;1913;-56
2024/01/02 13:43:11;;;;;;;;;;;;;;;;;;5094242;28;860;-56
2024/01/02 13:45:37;;;;;;;;;;;;;;;;;;5094170;28;830;-56
2024/01/02 13:48:10;;;;;;;;;;;;;;;;;;5094495;28;868;-58
2024/01/02 13:50:36;;;;;;;;;;;;;;;;;;5092878;28;1178;-57
2024/01/02 13:53:04;;;;;;;;;;;;;;;;;;5094175;28;953;-58
2024/01/02 13:55:29;;;;;;;;;;;;;;;;;;5093980;28;914;-57
2024/01/02 13:57:55;;;;;;;;;;;;;;;;;;5094139;28;994;-58
2024/01/02 14:00:21;;;;;;;;;;;;;;;;;;5094324;28;1890;-57
2024/01/02 14:02:53;;;;;;;;;;;;;;;;;;5094329;28;872;-58
2024/01/02 14:05:24;;;;;;;;;;;;;;;;;;5094141;28;895;-59
2024/01/02 14:07:49;;;;;;;;;;;;;;;;;;5093864;28;872;-57
2024/01/02 14:10:16;;;;;;;;;;;;;;;;;;5093784;28;954;-57
2024/01/02 14:12:44;;;;;;;;;;;;;;;;;;5093701;28;1241;-60
2024/01/02 14:15:12;;;;;;;;;;;;;;;;;;5095137;28;948;-57
2024/01/02 14:17:38;;;;;;;;;;;;;;;;;;5094429;28;1085;-58
2024/01/02 14:20:08;;;;;;;;;;;;;;;;;;5092955;28;848;-57
2024/01/02 14:22:39;;;;;;;;;;;;;;;;;;5094085;28;1898;-60
2024/01/02 14:25:23;;;;;;;;;;;;;;;;;;5093991;28;1139;-57
2024/01/02 14:28:10;;;;;;;;;;;;;;;;;;5096062;28;1018;-58
2024/01/02 14:30:41;;;;;;;;;;;;;;;;;;5096178;28;1221;-57
2024/01/02 14:33:18;;;;;;;;;;;;;;;;;;5097284;28;1028;-57
2024/01/02 14:35:49;;;;;;;;;;;;;;;;;;5097469;28;883;-58
2024/01/02 14:38:33;;;;;;;;;;;;;;;;;;5097511;28;781;-58
2024/01/02 14:41:17;;;;;;;;;;;;;;;;;;5097409;28;1910;-57
2024/01/02 14:43:43;;;;;;;;;;;;;;;;;;5096298;28;911;-58
2024/01/02 14:46:20;;;;;;;;;;;;;;;;;;5097091;28;873;-58
2024/01/02 14:48:46;;;;;;;;;;;;;;;;;;5096571;28;849;-57
2024/01/02 14:51:23;;;;;;;;;;;;;;;;;;5096337;28;983;-58
2024/01/02 14:53:48;;;;;;;;;;;;;;;;;;5096003;28;966;-58
2024/01/02 14:56:32;;;;;;;;;;;;;;;;;;5096296;28;867;-58
2024/01/02 14:59:09;;;;;;;;;;;;;;;;;;5096522;28;947;-58
2024/01/02 15:01:54;;;;;;;;;;;;;;;;;;5096135;28;1965;-57
2024/01/02 15:04:30;;;;;;;;;;;;;;;;;;5096270;28;970;-58
2024/01/02 15:06:57;;;;;;;;;;;;;;;;;;5096540;28;908;-57
2024/01/02 15:09:27;;;;;;;;;;;;;;;;;;5096289;28;900;-56
2024/01/02 15:11:52;;;;;;;;;;;;;;;;;;5095624;28;825;-57
2024/01/02 15:14:23;;;;;;;;;;;;;;;;;;5096167;28;997;-56
2024/01/02 15:16:57;;;;;;;;;;;;;;;;;;5094663;28;919;-57
2024/01/02 15:19:23;;;;;;;;;;;;;;;;;;5096054;28;828;-56
2024/01/02 15:21:59;;;;;;;;;;;;;;;;;;5095802;28;1965;-54
2024/01/02 15:24:33;;;;;;;;;;;;;;;;;;5095710;28;875;-55
2024/01/02 15:27:05;;;;;;;;;;;;;;;;;;5096494;28;887;-56
2024/01/02 15:29:40;;;;;;;;;;;;;;;;;;5095846;28;923;-56
2024/01/02 15:32:15;;;;;;;;;;;;;;;;;;5096062;28;911;-56
2024/01/02 15:34:59;;;;;;;;;;;;;;;;;;5095687;28;994;-56
2024/01/02 15:37:27;;;;;;;;;;;;;;;;;;5094732;28;976;-56
2024/01/02 15:39:56;;;;;;;;;;;;;;;;;;5095500;28;986;-56
2024/01/02 15:42:28;;;;;;;;;;;;;;;;;;5095659;28;1967;-57
2024/01/02 15:45:07;;;;;;;;;;;;;;;;;;5095914;28;801;-56
2024/01/02 15:47:50;;;;;;;;;;;;;;;;;;5095683;28;883;-57
2024/01/02 15:50:21;;;;;;;;;;;;;;;;;;5095604;28;955;-56
2024/01/02 15:52:50;;;;;;;;;;;;;;;;;;5095461;28;885;-56
2024/01/02 15:55:21;;;;;;;;;;;;;;;;;;5095934;28;1091;-57
2024/01/02 15:57:49;;;;;;;;;;;;;;;;;;5095357;28;899;-57
2024/01/02 16:00:17;;;;;;;;;;;;;;;;;;5095310;28;910;-55
2024/01/02 16:03:01;;;;;;;;;;;;;;;;;;5094886;28;1897;-58
2024/01/02 16:05:45;;;;;;;;;;;;;;;;;;5095605;28;939;-56
2024/01/02 16:08:29;;;;;;;;;;;;;;;;;;5095474;28;931;-56
2024/01/02 16:11:06;;;;;;;;;;;;;;;;;;5095000;28;983;-56
2024/01/02 16:13:50;;;;;;;;;;;;;;;;;;5095314;28;1422;-56
2024/01/02 16:16:25;;;;;;;;;;;;;;;;;;5095368;28;856;-56
2024/01/02 16:19:05;;;;;;;;;;;;;;;;;;5094163;28;856;-57
2024/01/02 16:21:40;;;;;;;;;;;;;;;;;;5094878;28;1965;-59
2024/01/02 16:24:17;;;;;;;;;;;;;;;;;;5095655;28;935;-56
2024/01/02 16:26:43;;;;;;;;;;;;;;;;;;5095268;28;895;-56
2024/01/02 16:29:11;;;;;;;;;;;;;;;;;;5095366;28;888;-57
2024/01/02 16:31:49;;;;;;;;;;;;;;;;;;5094099;28;931;-56
2024/01/02 16:34:26;;;;;;;;;;;;;;;;;;5095038;28;939;-56
2024/01/02 16:36:51;;;;;;;;;;;;;;;;;;5095126;28;868;-57
2024/01/02 16:39:21;;;;;;;;;;;;;;;;;;5095692;28;887;-57
2024/01/02 16:41:46;;;;;;;;;;;;;;;;;;5094862;28;1897;-57
2024/01/02 16:44:16;;;;;;;;;;;;;;;;;;5094766;28;1014;-57
2024/01/02 16:46:41;;;;;;;;;;;;;;;;;;5094256;28;948;-56
2024/01/02 16:49:07;;;;;;;;;;;;;;;;;;5094053;28;868;-56
2024/01/02 16:51:32;;;;;;;;;;;;;;;;;;5092420;28;1915;-57
2024/01/02 16:54:00;;;;;;;;;;;;;;;;;;5093769;28;1025;-56
2024/01/02 16:56:28;;;;;;;;;;;;;;;;;;5094193;28;876;-56
2024/01/02 16:58:53;;;;;;;;;;;;;;;;;;5092799;28;1443;-56
2024/01/02 17:01:20;;;;;;;;;;;;;;;;;;5092677;28;1980;-56
2024/01/02 17:03:46;;;;;;;;;;;;;;;;;;5093761;28;852;-56
2024/01/02 17:06:12;;;;;;;;;;;;;;;;;;5092917;28;840;-56
2024/01/02 17:08:39;;;;;;;;;;;;;;;;;;5094053;28;869;-57
2024/01/02 17:11:05;;;;;;;;;;;;;;;;;;5092646;28;1225;-56
2024/01/02 17:13:33;;;;;;;;;;;;;;;;;;5094138;28;825;-57
2024/01/02 17:15:59;;;;;;;;;;;;;;;;;;5093743;28;891;-54
2024/01/02 17:18:27;;;;;;;;;;;;;;;;;;5094308;28;832;-56
2024/01/02 17:20:53;;;;;;;;;;;;;;;;;;5094037;28;1957;-56